^^
Grace C. Lehan Memorial Weather Station Historical Data
Daily Summary for August 14, 2021 Units:  English    Metric   Both
Daily Weekly Monthly Yearly
  High: Low: Average:
Temperature: 77.8 °F 60.3 °F 69.6 °F
Dew Point: 64 °F 56.9 °F 59.9 °F
Humidity: 90.3% 54.6% 72%
Wind Speed: 2mph 0mph 0.1mph
Wind Gust: 6mph - -
Wind- - SSE
Pressure: 30.08 in 29.98 in -
Precipitation: 0.00 in    
 
 
Tabular Data for August 14, 2021
Time Temperature Dew Point Pressure Wind Wind Speed Wind Gust Humidity Rainfall Rate (Hourly) solar
00:00 66.6 °F 60.3 °F 29.98 in Calm     80% 0.00 in 0 W/m2
00:09 66.5 °F 59.8 °F 29.98 in Calm     79% 0.00 in 0 W/m2
00:14 66.4 °F 59.9 °F 29.98 in Calm     79.5% 0.00 in 0 W/m2
00:19 66.4 °F 60 °F 29.99 in Calm     80% 0.00 in 0 W/m2
00:24 66.3 °F 59.9 °F 29.99 in Calm     80% 0.00 in 0 W/m2
00:29 66.2 °F 59.8 °F 29.99 in Calm     80% 0.00 in 0 W/m2
00:34 66.1 °F 59.8 °F 30.00 in Calm     80% 0.00 in 0 W/m2
00:39 66 °F 59.7 °F 30.00 in Calm     80% 0.00 in 0 W/m2
00:44 66 °F 59.3 °F 30.00 in Calm     79% 0.00 in 0 W/m2
00:49 66 °F 59.2 °F 30.00 in Calm     78.9% 0.00 in 0 W/m2
00:53 65.9 °F 58.9 °F 30.00 in Calm     78% 0.00 in 0 W/m2
00:59 65.9 °F 58.9 °F 30.01 in Calm     78% 0.00 in 0 W/m2
01:04 65.9 °F 59.2 °F 30.01 in Calm     78.9% 0.00 in 0 W/m2
01:09 65.9 °F 59.4 °F 30.01 in Calm     79.5% 0.00 in 0 W/m2
01:14 65.8 °F 59.4 °F 30.01 in Calm     80% 0.00 in 0 W/m2
01:19 65.6 °F 58.8 °F 30.01 in Calm     78.9% 0.00 in 0 W/m2
01:24 65.3 °F 58.1 °F 30.01 in Calm     77.4% 0.00 in 0 W/m2
01:29 65.2 °F 58 °F 30.02 in ENE 0.1 mph 2 mph 77.6% 0.00 in 0 W/m2
01:34 65.2 °F 57.8 °F 30.02 in ENE 0.2 mph 3 mph 77% 0.00 in 0 W/m2
01:39 65.1 °F 58 °F 30.02 in WNW 0.9 mph 6 mph 77.7% 0.00 in 0 W/m2
01:44 65 °F 58.2 °F 30.02 in West 0.8 mph 6 mph 78.6% 0.00 in 0 W/m2
01:49 64.9 °F 58.2 °F 30.02 in West 0.9 mph 6 mph 78.7% 0.00 in 0 W/m2
01:54 64.8 °F 58 °F 30.02 in West 0.5 mph 6 mph 78.4% 0.00 in 0 W/m2
01:59 64.8 °F 57.9 °F 30.02 in Calm   6 mph 78.4% 0.00 in 0 W/m2
02:04 64.7 °F 58 °F 30.02 in Calm   6 mph 79% 0.00 in 0 W/m2
02:09 64.6 °F 58 °F 30.03 in Calm     79% 0.00 in 0 W/m2
02:14 64.5 °F 57.9 °F 30.03 in Calm     79% 0.00 in 0 W/m2
02:19 64.5 °F 58 °F 30.03 in Calm     79.4% 0.00 in 0 W/m2
02:24 64.4 °F 57.7 °F 30.03 in Calm     79% 0.00 in 0 W/m2
02:29 64.3 °F 57.7 °F 30.03 in Calm     79.1% 0.00 in 0 W/m2
02:34 64.3 °F 58 °F 30.02 in Calm     80% 0.00 in 0 W/m2
02:39 64.2 °F 57.7 °F 30.03 in Calm     79.2% 0.00 in 0 W/m2
02:44 64.2 °F 57.6 °F 30.04 in Calm     79% 0.00 in 0 W/m2
02:49 64.2 °F 57.7 °F 30.04 in Calm     79.4% 0.00 in 0 W/m2
02:54 64.3 °F 57.7 °F 30.04 in Calm     79% 0.00 in 0 W/m2
02:59 64.4 °F 57.8 °F 30.04 in Calm     79% 0.00 in 0 W/m2
03:04 64.5 °F 57.9 °F 30.03 in Calm     79% 0.00 in 0 W/m2
03:09 64.6 °F 57.9 °F 30.03 in Calm     79% 0.00 in 0 W/m2
03:14 64.6 °F 58 °F 30.03 in Calm     79% 0.00 in 0 W/m2
03:19 64.6 °F 58 °F 30.04 in Calm     79% 0.00 in 0 W/m2
03:24 64.5 °F 57.9 °F 30.03 in Calm     79% 0.00 in 0 W/m2
03:29 64.5 °F 57.8 °F 30.03 in Calm     79% 0.00 in 0 W/m2
03:34 64.4 °F 57.8 °F 30.03 in Calm     79% 0.00 in 0 W/m2
03:39 64.3 °F 57.8 °F 30.03 in Calm     79.3% 0.00 in 0 W/m2
03:44 64.3 °F 58 °F 30.03 in Calm     80% 0.00 in 0 W/m2
03:49 64.2 °F 58.1 °F 30.03 in Calm     80.6% 0.00 in 0 W/m2
03:54 64.1 °F 58.1 °F 30.03 in Calm     81% 0.00 in 0 W/m2
03:59 64 °F 58.1 °F 30.03 in Calm     81% 0.00 in 0 W/m2
04:00 64 °F 58.1 °F 30.03 in Calm     81% 0.00 in 0 W/m2
04:09 63.8 °F 57.9 °F 30.03 in Calm     81% 0.00 in 0 W/m2
04:14 63.7 °F 58.2 °F 30.03 in Calm     82% 0.00 in 0 W/m2
04:19 63.6 °F 58 °F 30.03 in Calm     82% 0.00 in 0 W/m2
04:24 63.5 °F 58 °F 30.02 in Calm     82.1% 0.00 in 0 W/m2
04:29 63.4 °F 58.2 °F 30.02 in Calm     83% 0.00 in 0 W/m2
04:34 63.3 °F 58.1 °F 30.02 in Calm     83% 0.00 in 0 W/m2
04:39 63.2 °F 57.9 °F 30.02 in Calm     83% 0.00 in 0 W/m2
04:44 63 °F 57.8 °F 30.01 in Calm     83% 0.00 in 0 W/m2
04:49 62.9 °F 57.7 °F 30.01 in Calm     83% 0.00 in 0 W/m2
04:54 62.8 °F 57.8 °F 30.01 in Calm     83.8% 0.00 in 0 W/m2
04:59 62.6 °F 57.7 °F 30.02 in Calm     84% 0.00 in 0 W/m2
05:04 62.5 °F 57.6 °F 30.02 in Calm     84% 0.00 in 0 W/m2
05:09 62.3 °F 57.7 °F 30.02 in Calm     84.9% 0.00 in 0 W/m2
05:14 62.2 °F 57.7 °F 30.02 in Calm     85% 0.00 in 0 W/m2
05:19 62 °F 57.5 °F 30.02 in Calm     85% 0.00 in 0 W/m2
05:24 61.9 °F 57.7 °F 30.02 in Calm     86% 0.00 in 0 W/m2
05:29 61.8 °F 57.5 °F 30.02 in Calm     86% 0.00 in 0 W/m2
05:34 61.6 °F 57.4 °F 30.03 in Calm     86% 0.00 in 0 W/m2
05:39 61.5 °F 57.5 °F 30.04 in Calm     86.7% 0.00 in 0 W/m2
05:44 61.4 °F 57.5 °F 30.05 in Calm     87% 0.00 in 0 W/m2
05:49 61.2 °F 57.4 °F 30.05 in Calm     87.4% 0.00 in 0 W/m2
05:54 61 °F 57.1 °F 30.05 in Calm     87% 0.00 in 0 W/m2
05:59 60.9 °F 57 °F 30.05 in Calm     87% 0.00 in 0 W/m2
06:04 60.7 °F 57.1 °F 30.05 in Calm     87.9% 0.00 in 0 W/m2
06:09 60.6 °F 57.1 °F 30.06 in Calm     88% 0.00 in 0 W/m2
06:14 60.6 °F 57 °F 30.06 in Calm     88% 0.00 in 0 W/m2
06:19 60.5 °F 56.9 °F 30.06 in Calm     88% 0.00 in 0 W/m2
06:24 60.4 °F 57.1 °F 30.06 in Calm     88.6% 0.00 in 7 W/m2
06:29 60.4 °F 57.1 °F 30.06 in Calm     89% 0.00 in 11 W/m2
06:34 60.3 °F 57.1 °F 30.06 in Calm     89% 0.00 in 11 W/m2
06:39 60.3 °F 57.1 °F 30.05 in Calm     89% 0.00 in 14 W/m2
06:44 60.3 °F 57.2 °F 30.04 in Calm     89.3% 0.00 in 18 W/m2
06:49 60.4 °F 57.4 °F 30.03 in Calm     89.7% 0.00 in 23 W/m2
06:54 60.4 °F 57.5 °F 30.03 in Calm     90% 0.00 in 23 W/m2
06:59 60.5 °F 57.5 °F 30.03 in Calm     90% 0.00 in 18 W/m2
07:04 60.6 °F 57.6 °F 30.04 in Calm     90% 0.00 in 16 W/m2
07:09 60.7 °F 57.7 °F 30.04 in Calm     90% 0.00 in 18 W/m2
07:14 60.7 °F 57.8 °F 30.03 in Calm     90% 0.00 in 19 W/m2
07:19 60.7 °F 57.8 °F 30.03 in Calm     90% 0.00 in 21 W/m2
07:24 60.8 °F 57.9 °F 30.04 in Calm     90% 0.00 in 26 W/m2
07:29 60.9 °F 58 °F 30.05 in West 0.4 mph 4 mph 90% 0.00 in 28 W/m2
07:34 61.1 °F 58.1 °F 30.06 in Calm   4 mph 90% 0.00 in 30 W/m2
07:39 61.2 °F 58.3 °F 30.06 in West 0.5 mph 4 mph 90.3% 0.00 in 33 W/m2
07:44 61.2 °F 58.2 °F 30.06 in West 0.2 mph 4 mph 89.8% 0.00 in 35 W/m2
07:49 61.4 °F 58.1 °F 30.07 in West 0.1 mph 4 mph 89% 0.00 in 39 W/m2
07:54 61.6 °F 58.3 °F 30.07 in West 0.1 mph 4 mph 89% 0.00 in 42 W/m2
07:59 61.9 °F 58.5 °F 30.08 in Calm   4 mph 88.8% 0.00 in 46 W/m2
08:04 62.3 °F 58.7 °F 30.07 in Calm     88% 0.00 in 46 W/m2
08:09 62.5 °F 58.7 °F 30.07 in Calm     87.5% 0.00 in 51 W/m2
08:14 62.8 °F 58.7 °F 30.07 in Calm     86.4% 0.00 in 58 W/m2
08:19 63.2 °F 58.9 °F 30.07 in Calm     85.9% 0.00 in 63 W/m2
08:24 63.6 °F 58.7 °F 30.07 in Calm     84.2% 0.00 in 74 W/m2
08:29 64 °F 59 °F 30.07 in West 0.1 mph 2 mph 83.6% 0.00 in 88 W/m2
08:34 64.4 °F 58.9 °F 30.07 in Calm   2 mph 82.1% 0.00 in 225 W/m2
08:39 64.9 °F 59.3 °F 30.08 in Calm   1 mph 82% 0.00 in 257 W/m2
08:44 65.3 °F 59.1 °F 30.08 in Calm   1 mph 80.4% 0.00 in 241 W/m2
08:49 65.7 °F 59.1 °F 30.08 in Calm   1 mph 79% 0.00 in 230 W/m2
08:54 66.2 °F 59.4 °F 30.07 in Calm   1 mph 78.7% 0.00 in 230 W/m2
08:59 66.7 °F 59.5 °F 30.07 in Calm   1 mph 77.8% 0.00 in 223 W/m2
09:04 67.1 °F 59.6 °F 30.07 in NW 0.2 mph 2 mph 76.8% 0.00 in 373 W/m2
09:09 67.6 °F 59.7 °F 30.08 in NNW 0.1 mph 2 mph 75.7% 0.00 in 383 W/m2
09:14 68.1 °F 60 °F 30.08 in Calm   2 mph 75.3% 0.00 in 192 W/m2
09:19 68.5 °F 60 °F 30.07 in NNE 0.5 mph 3 mph 74.3% 0.00 in 211 W/m2
09:24 68.8 °F 60.1 °F 30.07 in NNE 0.2 mph 4 mph 74% 0.00 in 468 W/m2
09:29 69.3 °F 60 °F 30.07 in Calm   4 mph 72.4% 0.00 in 482 W/m2
09:34 69.9 °F 60.8 °F 30.07 in Calm   4 mph 72.7% 0.00 in 482 W/m2
09:39 70.3 °F 60.6 °F 30.08 in Calm     71.4% 0.00 in 336 W/m2
09:44 70.4 °F 60.1 °F 30.07 in ENE 1.5 mph 5 mph 69.8% 0.00 in 336 W/m2
09:49 70.3 °F 59.5 °F 30.07 in ENE 0.3 mph 5 mph 68.7% 0.00 in 306 W/m2
09:54 70.2 °F 60.1 °F 30.07 in East 1.2 mph 5 mph 70.4% 0.00 in 443 W/m2
09:59 70 °F 59.4 °F 30.07 in East 0.8 mph 5 mph 69.3% 0.00 in 367 W/m2
10:04 70 °F 60.3 °F 30.08 in East 0.1 mph 5 mph 71.2% 0.00 in 503 W/m2
10:09 70.5 °F 60.9 °F 30.08 in Calm   2 mph 71.8% 0.00 in 519 W/m2
10:14 70.9 °F 60.5 °F 30.08 in East 0.5 mph 4 mph 69.6% 0.00 in 461 W/m2
10:19 70.9 °F 60.4 °F 30.08 in Calm   4 mph 69.3% 0.00 in 381 W/m2
10:24 71.2 °F 60.9 °F 30.08 in Calm   4 mph 70% 0.00 in 605 W/m2
10:29 71.7 °F 61.5 °F 30.08 in NE 0.3 mph 4 mph 70.3% 0.00 in 619 W/m2
10:34 72.5 °F 61.8 °F 30.07 in NE 0.1 mph 4 mph 69.1% 0.00 in 568 W/m2
10:39 73.1 °F 62 °F 30.07 in Calm   2 mph 68.2% 0.00 in 552 W/m2
10:44 73.6 °F 61.1 °F 30.07 in Calm   2 mph 65.1% 0.00 in 578 W/m2
10:49 74.1 °F 61.1 °F 30.07 in Calm   2 mph 64.1% 0.00 in 608 W/m2
10:54 74.3 °F 60.6 °F 30.07 in Calm   2 mph 62.5% 0.00 in 533 W/m2
10:59 74.4 °F 60.9 °F 30.07 in Calm   2 mph 62.8% 0.00 in 438 W/m2
11:04 74.5 °F 61.7 °F 30.07 in Calm   2 mph 64.5% 0.00 in 469 W/m2
11:09 74.6 °F 61.9 °F 30.07 in Calm     64.5% 0.00 in 640 W/m2
11:14 74.7 °F 60.9 °F 30.07 in NE 0.2 mph 2 mph 62.2% 0.00 in 612 W/m2
11:19 74.8 °F 61.7 °F 30.07 in NE 0.1 mph 2 mph 63.6% 0.00 in 573 W/m2
11:24 75.2 °F 61.4 °F 30.06 in Calm   2 mph 62.3% 0.00 in 601 W/m2
11:29 75.5 °F 60.4 °F 30.06 in Calm   2 mph 59.6% 0.00 in 612 W/m2
11:34 75.6 °F 60.2 °F 30.06 in NE 0.1 mph 2 mph 58.7% 0.00 in 622 W/m2
11:39 75.9 °F 60.3 °F 30.06 in Calm   2 mph 58.4% 0.00 in 587 W/m2
11:44 76 °F 60.7 °F 30.05 in Calm   2 mph 59% 0.00 in 272 W/m2
11:49 76.1 °F 60.6 °F 30.05 in Calm   2 mph 58.7% 0.00 in 202 W/m2
11:54 76.1 °F 61 °F 30.05 in Calm   2 mph 59.6% 0.00 in 192 W/m2
11:59 76.2 °F 61.1 °F 30.05 in NE 0.1 mph 2 mph 59.7% 0.00 in 206 W/m2
12:00 76.2 °F 60.4 °F 30.05 in NE 2 mph 2 mph 58% 0.00 in 206 W/m2
12:09 76.3 °F 61.6 °F 30.05 in NE 0.2 mph 2 mph 60.5% 0.00 in 204 W/m2
12:14 76.6 °F 62.5 °F 30.04 in Calm   2 mph 61.8% 0.00 in 204 W/m2
12:19 76.7 °F 61.5 °F 30.05 in NE 0.3 mph 3 mph 59.5% 0.00 in 211 W/m2
12:24 76.7 °F 60.7 °F 30.04 in Calm   3 mph 57.8% 0.00 in 214 W/m2
12:29 76.4 °F 60.6 °F 30.05 in ESE 0.2 mph 5 mph 58.1% 0.00 in 211 W/m2
12:34 76.2 °F 59.2 °F 30.04 in ESE 0.2 mph 5 mph 55.6% 0.00 in 415 W/m2
12:39 76.2 °F 58.9 °F 30.04 in ESE 0.1 mph 3 mph 55.1% 0.00 in 455 W/m2
12:44 76.3 °F 59.3 °F 30.04 in ESE 0.1 mph 3 mph 55.6% 0.00 in 265 W/m2
12:49 76.6 °F 59.4 °F 30.04 in Calm   3 mph 55.2% 0.00 in 174 W/m2
12:54 76.7 °F 59.1 °F 30.04 in ESE 0.1 mph 3 mph 54.6% 0.00 in 185 W/m2
12:59 76.5 °F 59.9 °F 30.04 in ESE 0.1 mph 3 mph 56.4% 0.00 in 225 W/m2
13:04 76.6 °F 60 °F 30.04 in SE 0.2 mph 3 mph 56.5% 0.00 in 225 W/m2
13:09 76.8 °F 60.5 °F 30.03 in SE 0.3 mph 2 mph 57.1% 0.00 in 200 W/m2
13:14 77 °F 60.5 °F 30.03 in Calm   2 mph 56.9% 0.00 in 200 W/m2
13:19 77.1 °F 61.2 °F 30.03 in Calm   2 mph 57.9% 0.00 in 197 W/m2
13:24 77.2 °F 60.6 °F 30.03 in Calm   2 mph 56.5% 0.00 in 185 W/m2
13:29 77.2 °F 60.8 °F 30.03 in SSW 0.2 mph 4 mph 57% 0.00 in 223 W/m2
13:34 77.2 °F 60.6 °F 30.03 in SW 0.1 mph 4 mph 56.5% 0.00 in 253 W/m2
13:39 77.1 °F 60.6 °F 30.03 in Calm   2 mph 57% 0.00 in 322 W/m2
13:44 77.1 °F 61.7 °F 30.03 in Calm   2 mph 59% 0.00 in 318 W/m2
13:49 77.3 °F 61.8 °F 30.03 in Calm   2 mph 58.8% 0.00 in 294 W/m2
13:54 77.5 °F 62.1 °F 30.03 in SSW 0.1 mph 2 mph 59.2% 0.00 in 241 W/m2
13:59 77.5 °F 61.2 °F 30.02 in SSW 0.3 mph 2 mph 57.2% 0.00 in 230 W/m2
14:04 77.4 °F 60.8 °F 30.02 in Calm   2 mph 56.7% 0.00 in 204 W/m2
14:09 77.2 °F 61.2 °F 30.02 in Calm     57.8% 0.00 in 169 W/m2
14:14 77.1 °F 62.2 °F 30.02 in Calm   1 mph 60.1% 0.00 in 216 W/m2
14:19 77.1 °F 62.6 °F 30.02 in Calm   1 mph 61% 0.00 in 225 W/m2
14:24 77.1 °F 62.8 °F 30.02 in SSW 0.1 mph 2 mph 61.3% 0.00 in 202 W/m2
14:29 77.3 °F 62.9 °F 30.01 in Calm   2 mph 61.3% 0.00 in 179 W/m2
14:34 77.4 °F 62.7 °F 30.01 in Calm   2 mph 60.6% 0.00 in 206 W/m2
14:39 77.4 °F 62.5 °F 30.01 in Calm     60.2% 0.00 in 204 W/m2
14:44 77.5 °F 62.8 °F 30.01 in SSW 0.2 mph 3 mph 60.6% 0.00 in 195 W/m2
14:49 77.5 °F 63.2 °F 30.01 in Calm   3 mph 61.3% 0.00 in 279 W/m2
14:54 77.6 °F 63 °F 30.01 in SW 0.1 mph 3 mph 60.6% 0.00 in 206 W/m2
14:59 77.8 °F 62.8 °F 30.01 in Calm   3 mph 60.1% 0.00 in 153 W/m2
15:04 77.7 °F 63.1 °F 30.01 in Calm   3 mph 60.8% 0.00 in 162 W/m2
15:09 77.7 °F 64 °F 30.01 in Calm   1 mph 62.8% 0.00 in 178 W/m2
15:14 77.8 °F 63.9 °F 30.00 in Calm   1 mph 62.4% 0.00 in 158 W/m2
15:19 77.7 °F 63.3 °F 30.00 in Calm   1 mph 61.3% 0.00 in 178 W/m2
15:24 77.7 °F 63.9 °F 30.00 in Calm   1 mph 62.5% 0.00 in 190 W/m2
15:29 77.7 °F 63.8 °F 30.00 in Calm   1 mph 62.3% 0.00 in 183 W/m2
15:34 77.7 °F 63.8 °F 30.00 in SW 0.1 mph 1 mph 62.3% 0.00 in 181 W/m2
15:39 77.7 °F 63.7 °F 30.00 in SW 0.1 mph 2 mph 62% 0.00 in 176 W/m2
15:44 77.7 °F 63.4 °F 30.00 in SW 0.1 mph 2 mph 61.5% 0.00 in 171 W/m2
15:49 77.6 °F 63.3 °F 30.00 in SW 0.1 mph 2 mph 61.4% 0.00 in 172 W/m2
15:54 77.6 °F 63.5 °F 30.00 in SW 0.3 mph 5 mph 61.8% 0.00 in 149 W/m2
15:59 77.6 °F 63.1 °F 30.00 in SW 0.1 mph 5 mph 61.1% 0.00 in 135 W/m2
16:00 77.6 °F 63.1 °F 30.00 in South 2 mph 5 mph 61% 0.00 in 134 W/m2
16:09 77.4 °F 62.4 °F 30.00 in Calm   1 mph 59.8% 0.00 in 179 W/m2
16:14 77.4 °F 61.8 °F 30.00 in Calm   1 mph 58.6% 0.00 in 179 W/m2
16:19 77.4 °F 61.9 °F 30.00 in Calm   1 mph 59% 0.00 in 156 W/m2
16:24 77.3 °F 61.6 °F 30.00 in Calm   1 mph 58.5% 0.00 in 139 W/m2
16:29 77.2 °F 61.6 °F 30.00 in Calm   1 mph 58.5% 0.00 in 123 W/m2
16:34 77.1 °F 61.3 °F 30.00 in Calm   1 mph 58.2% 0.00 in 113 W/m2
16:39 76.9 °F 61.2 °F 30.00 in Calm   1 mph 58.3% 0.00 in 127 W/m2
16:44 76.8 °F 60.8 °F 30.00 in Calm   1 mph 57.7% 0.00 in 118 W/m2
16:49 76.7 °F 60.5 °F 30.00 in Calm   1 mph 57.4% 0.00 in 100 W/m2
16:54 76.6 °F 60.9 °F 30.00 in South 0.1 mph 2 mph 58.4% 0.00 in 77 W/m2
16:59 76.4 °F 60.8 °F 30.00 in South 0.1 mph 2 mph 58.6% 0.00 in 70 W/m2
17:04 76.2 °F 61.3 °F 30.00 in Calm   2 mph 59.9% 0.00 in 77 W/m2
17:09 76 °F 61.5 °F 30.00 in Calm   1 mph 60.8% 0.00 in 93 W/m2
17:14 75.8 °F 61.1 °F 30.00 in South 0.1 mph 2 mph 60.5% 0.00 in 90 W/m2
17:19 75.6 °F 61.1 °F 29.99 in Calm   2 mph 60.9% 0.00 in 77 W/m2
17:24 75.4 °F 61.1 °F 30.00 in South 0.1 mph 3 mph 61.1% 0.00 in 83 W/m2
17:29 75.2 °F 60.9 °F 30.00 in Calm   3 mph 61% 0.00 in 83 W/m2
17:34 75.1 °F 61.3 °F 29.99 in Calm   3 mph 62% 0.00 in 76 W/m2
17:39 75.1 °F 61.2 °F 29.99 in Calm     62% 0.00 in 74 W/m2
17:44 75.1 °F 61.5 °F 29.99 in Calm   1 mph 62.6% 0.00 in 62 W/m2
17:49 75.1 °F 61.6 °F 29.99 in Calm   1 mph 63% 0.00 in 58 W/m2
17:54 75 °F 61.3 °F 29.99 in South 0.1 mph 2 mph 62.6% 0.00 in 46 W/m2
17:59 74.8 °F 61.7 °F 29.99 in Calm   2 mph 63.6% 0.00 in 33 W/m2
18:04 74.6 °F 61.8 °F 29.99 in Calm   2 mph 64.3% 0.00 in 26 W/m2
18:09 74.5 °F 61.9 °F 29.99 in Calm     65% 0.00 in 23 W/m2
18:14 74.3 °F 62.2 °F 29.99 in Calm   1 mph 65.9% 0.00 in 21 W/m2
18:19 74.1 °F 62.4 °F 29.99 in Calm   1 mph 66.9% 0.00 in 21 W/m2
18:24 74 °F 62.7 °F 29.99 in Calm   1 mph 67.8% 0.00 in 21 W/m2
18:29 73.8 °F 62.7 °F 29.99 in Calm   1 mph 68.1% 0.00 in 21 W/m2
18:34 73.7 °F 62.9 °F 29.99 in SSW 0.5 mph 2 mph 69% 0.00 in 19 W/m2
18:39 73.6 °F 62.8 °F 30.00 in Calm   2 mph 69% 0.00 in 16 W/m2
18:44 73.4 °F 62.8 °F 30.00 in Calm   2 mph 69.4% 0.00 in 12 W/m2
18:49 73.3 °F 63 °F 29.99 in Calm   2 mph 70% 0.00 in 9 W/m2
18:54 73.2 °F 63 °F 29.99 in Calm   2 mph 70.5% 0.00 in 7 W/m2
18:59 73 °F 63.1 °F 29.99 in SSW 0.5 mph 3 mph 71% 0.00 in 0 W/m2
19:03 72.9 °F 63 °F 29.99 in Calm   3 mph 71% 0.00 in 0 W/m2
Hartford County Weather
Compliments of Weather Underground - 2 mb